Time;durP1;ratioP1;P1;durP2;ratioP2;P2;SDS_P1;SDS_P2;PMS_P1;PMS_P2;Temp;Humidity;BMP_temperature;BMP_pressure;BME280_temperature;BME280_humidity;BME280_pressure;Samples;Min_cycle;Max_cycle;Signal;HPM_P1;HPM_P2
2021/04/29 00:01:37;;;;;;;;;;;11.90;99.90;;;;;;5030011;28;19927;-69
2021/04/29 00:04:02;;;;;;;;;;;11.90;99.90;;;;;;5046903;28;19920;-70
2021/04/29 00:06:28;;;;;;;;;;;11.80;99.90;;;;;;5018864;28;19920;-69
2021/04/29 00:08:53;;;;;;;;;;;11.80;99.90;;;;;;5048135;28;19924;-70
2021/04/29 00:11:19;;;;;;;;;;;11.70;99.90;;;;;;5046959;28;19921;-70
2021/04/29 00:13:44;;;;;;;;;;;11.60;99.90;;;;;;5048484;28;19920;-70
2021/04/29 00:16:10;;;;;;;;;;;11.60;99.90;;;;;;5049456;28;20534;-70
2021/04/29 00:18:35;;;;;;;;;;;11.60;99.90;;;;;;5048806;28;20337;-70
2021/04/29 00:21:01;;;;;;;;;;;11.60;99.90;;;;;;5029527;28;19978;-70
2021/04/29 00:23:27;;;;;;;;;;;11.60;99.90;;;;;;5047682;28;19973;-70
2021/04/29 00:25:52;;;;;;;;;;;11.70;99.90;;;;;;5046190;28;19924;-70
2021/04/29 00:28:18;;;;;;;;;;;11.50;99.90;;;;;;5049051;28;19917;-70
2021/04/29 00:30:46;;;;;;;;;;;11.60;99.90;;;;;;5049029;28;19932;-70
2021/04/29 00:33:16;;;;;;;;;;;11.40;99.90;;;;;;5031391;28;19999;-70
2021/04/29 00:35:42;;;;;;;;;;;11.40;99.90;;;;;;5046348;28;19925;-70
2021/04/29 00:38:07;;;;;;;;;;;11.40;99.90;;;;;;5028119;28;19931;-70
2021/04/29 00:40:33;;;;;;;;;;;11.50;99.90;;;;;;5047442;28;19932;-70
2021/04/29 00:43:01;;;;;;;;;;;11.40;99.90;;;;;;5030815;28;19928;-70
2021/04/29 00:45:26;;;;;;;;;;;11.50;99.90;;;;;;5030655;28;19921;-70
2021/04/29 00:47:52;;;;;;;;;;;11.40;99.90;;;;;;5047368;28;19916;-70
2021/04/29 00:50:19;;;;;;;;;;;11.30;99.90;;;;;;5047484;28;20023;-70
2021/04/29 00:52:46;;;;;;;;;;;11.20;99.90;;;;;;5046592;28;19939;-70
2021/04/29 00:55:12;;;;;;;;;;;11.20;99.90;;;;;;5029683;28;20030;-70
2021/04/29 00:57:40;;;;;;;;;;;11.30;99.90;;;;;;5047180;28;19924;-69
2021/04/29 01:00:07;;;;;;;;;;;11.20;99.90;;;;;;5046845;28;19929;-70
2021/04/29 01:02:32;;;;;;;;;;;11.20;99.90;;;;;;5047997;28;19951;-70
2021/04/29 01:05:05;;;;;;;;;;;11.20;99.90;;;;;;5029466;28;19920;-69
2021/04/29 01:07:32;;;;;;;;;;;11.10;99.90;;;;;;5028698;28;19929;-70
2021/04/29 01:09:57;;;;;;;;;;;11.10;99.90;;;;;;5046129;28;19920;-70
2021/04/29 01:12:26;;;;;;;;;;;11.00;99.90;;;;;;5046049;28;20560;-70
2021/04/29 01:14:54;;;;;;;;;;;11.10;99.90;;;;;;5046461;28;19920;-70
2021/04/29 01:17:20;;;;;;;;;;;10.80;99.90;;;;;;5046097;28;21741;-70
2021/04/29 01:19:48;;;;;;;;;;;10.90;99.90;;;;;;5030048;28;20044;-70
2021/04/29 01:22:13;;;;;;;;;;;11.00;99.90;;;;;;5029097;28;19920;-70
2021/04/29 01:24:41;;;;;;;;;;;11.00;99.90;;;;;;5029594;28;20232;-70
2021/04/29 01:27:09;;;;;;;;;;;11.00;99.90;;;;;;5028998;28;20758;-70
2021/04/29 01:29:35;;;;;;;;;;;11.00;99.90;;;;;;5029324;28;19970;-70
2021/04/29 01:32:00;;;;;;;;;;;11.00;99.90;;;;;;5012826;28;19920;-70
2021/04/29 01:34:28;;;;;;;;;;;11.00;99.90;;;;;;5027648;28;19917;-70
2021/04/29 01:36:58;;;;;;;;;;;10.90;99.90;;;;;;5029824;28;19920;-71
2021/04/29 01:39:26;;;;;;;;;;;10.90;99.90;;;;;;5030474;28;19912;-70
2021/04/29 01:41:52;;;;;;;;;;;11.00;99.90;;;;;;5028688;28;20011;-70
2021/04/29 01:44:20;;;;;;;;;;;10.90;99.90;;;;;;5028261;28;19921;-70
2021/04/29 01:46:48;;;;;;;;;;;10.80;99.90;;;;;;5029099;28;20066;-71
2021/04/29 01:49:14;;;;;;;;;;;10.90;99.90;;;;;;5046269;28;19916;-70
2021/04/29 01:51:40;;;;;;;;;;;10.90;99.90;;;;;;5046689;28;19939;-70
2021/04/29 01:54:06;;;;;;;;;;;10.80;99.90;;;;;;5009611;28;19920;-70
2021/04/29 01:56:34;;;;;;;;;;;10.90;99.90;;;;;;5028687;28;20389;-70
2021/04/29 01:58:59;;;;;;;;;;;10.90;99.90;;;;;;5027622;28;19946;-70
2021/04/29 02:01:28;;;;;;;;;;;10.90;99.90;;;;;;5046243;28;19924;-70
2021/04/29 02:03:54;;;;;;;;;;;10.90;99.90;;;;;;5046740;28;20369;-70
2021/04/29 02:06:19;;;;;;;;;;;10.80;99.90;;;;;;5047081;28;19917;-70
2021/04/29 02:08:45;;;;;;;;;;;10.90;99.90;;;;;;5045830;28;19989;-70
2021/04/29 02:11:11;;;;;;;;;;;10.90;99.90;;;;;;5011641;28;20261;-70
2021/04/29 02:13:36;;;;;;;;;;;10.90;99.90;;;;;;5017430;28;19920;-70
2021/04/29 02:16:03;;;;;;;;;;;10.80;99.90;;;;;;5028330;28;19920;-70
2021/04/29 02:18:28;;;;;;;;;;;10.80;99.90;;;;;;5046027;28;19917;-70
2021/04/29 02:20:54;;;;;;;;;;;10.80;99.90;;;;;;5029979;28;21742;-70
2021/04/29 02:23:20;;;;;;;;;;;10.90;99.90;;;;;;5050474;28;19917;-70
2021/04/29 02:25:47;;;;;;;;;;;10.90;99.90;;;;;;5014713;28;19921;-70
2021/04/29 02:28:15;;;;;;;;;;;10.90;99.90;;;;;;5049555;28;19917;-70
2021/04/29 02:30:41;;;;;;;;;;;10.90;99.90;;;;;;5031853;28;19960;-70
2021/04/29 02:33:06;;;;;;;;;;;10.80;99.90;;;;;;5031752;28;19928;-70
2021/04/29 02:35:32;;;;;;;;;;;10.70;99.90;;;;;;5050017;28;19921;-70
2021/04/29 02:37:58;;;;;;;;;;;10.70;99.90;;;;;;5022406;28;20031;-70
2021/04/29 02:40:23;;;;;;;;;;;10.70;99.90;;;;;;5014578;28;19924;-70
2021/04/29 02:42:49;;;;;;;;;;;10.70;99.90;;;;;;5021042;28;19920;-70
2021/04/29 02:45:15;;;;;;;;;;;10.70;99.90;;;;;;5032497;28;20011;-70
2021/04/29 02:47:41;;;;;;;;;;;10.60;99.90;;;;;;5048097;28;20587;-70
2021/04/29 02:50:10;;;;;;;;;;;10.70;99.90;;;;;;5029500;28;19947;-70
2021/04/29 02:52:37;;;;;;;;;;;10.70;99.90;;;;;;5015505;28;20369;-70
2021/04/29 02:55:03;;;;;;;;;;;10.70;99.90;;;;;;5048474;28;19988;-71
2021/04/29 02:57:28;;;;;;;;;;;10.80;99.90;;;;;;5049392;28;19951;-70
2021/04/29 02:59:56;;;;;;;;;;;10.70;99.90;;;;;;5031593;28;19927;-70
2021/04/29 03:02:24;;;;;;;;;;;10.80;99.90;;;;;;5050699;28;19928;-70
2021/04/29 03:04:50;;;;;;;;;;;10.70;99.90;;;;;;5050451;28;19944;-70
2021/04/29 03:07:15;;;;;;;;;;;10.70;99.90;;;;;;5048392;28;19929;-71
2021/04/29 03:09:41;;;;;;;;;;;10.70;99.90;;;;;;5049501;28;19921;-70
2021/04/29 03:12:06;;;;;;;;;;;10.70;99.90;;;;;;5048519;28;19916;-70
2021/04/29 03:14:34;;;;;;;;;;;10.70;99.90;;;;;;5032716;28;20020;-70
2021/04/29 03:17:02;;;;;;;;;;;10.60;99.90;;;;;;5048572;28;19920;-70
2021/04/29 03:19:27;;;;;;;;;;;10.70;99.90;;;;;;5030102;28;19952;-70
2021/04/29 03:21:53;;;;;;;;;;;10.60;99.90;;;;;;5032248;28;20335;-70
2021/04/29 03:24:21;;;;;;;;;;;10.50;99.90;;;;;;5049609;28;19923;-70
2021/04/29 03:26:46;;;;;;;;;;;10.50;99.90;;;;;;5049162;28;19917;-70
2021/04/29 03:29:12;;;;;;;;;;;10.60;99.90;;;;;;5048687;28;20357;-70
2021/04/29 03:31:37;;;;;;;;;;;10.60;99.90;;;;;;5049602;28;20035;-70
2021/04/29 03:34:03;;;;;;;;;;;10.70;99.90;;;;;;5031798;28;20283;-70
2021/04/29 03:36:28;;;;;;;;;;;10.70;99.90;;;;;;5049987;28;19924;-70
2021/04/29 03:38:54;;;;;;;;;;;10.60;99.90;;;;;;5048361;28;19935;-70
2021/04/29 03:41:19;;;;;;;;;;;10.70;99.90;;;;;;5048652;28;19928;-70
2021/04/29 03:43:45;;;;;;;;;;;10.70;99.90;;;;;;5031442;28;19917;-70
2021/04/29 03:46:13;;;;;;;;;;;10.60;99.90;;;;;;5049224;28;19924;-70
2021/04/29 03:48:38;;;;;;;;;;;10.60;99.90;;;;;;5049078;28;19917;-70
2021/04/29 03:51:04;;;;;;;;;;;10.60;99.90;;;;;;5031255;28;19963;-70
2021/04/29 03:53:29;;;;;;;;;;;10.50;99.90;;;;;;5049467;28;19932;-70
2021/04/29 03:55:55;;;;;;;;;;;10.60;99.90;;;;;;5030147;28;19917;-70
2021/04/29 03:58:20;;;;;;;;;;;10.50;99.90;;;;;;5048959;28;19991;-70
2021/04/29 04:00:46;;;;;;;;;;;10.50;99.90;;;;;;5048797;28;20314;-70
2021/04/29 04:03:11;;;;;;;;;;;10.60;99.90;;;;;;5031164;28;19921;-70
2021/04/29 04:05:37;;;;;;;;;;;10.50;99.90;;;;;;5031659;28;19978;-70
2021/04/29 04:08:05;;;;;;;;;;;10.50;99.90;;;;;;5048082;28;19929;-70
2021/04/29 04:10:30;;;;;;;;;;;10.60;99.90;;;;;;5047426;28;19921;-71
2021/04/29 04:12:56;;;;;;;;;;;10.50;99.90;;;;;;5047213;28;19921;-71
2021/04/29 04:15:21;;;;;;;;;;;10.50;99.90;;;;;;5048649;28;19927;-70
2021/04/29 04:17:47;;;;;;;;;;;10.50;99.90;;;;;;5047987;28;19924;-71
2021/04/29 04:20:13;;;;;;;;;;;10.50;99.90;;;;;;5030238;28;20247;-71
2021/04/29 04:22:38;;;;;;;;;;;10.60;99.90;;;;;;5047539;28;20015;-70
2021/04/29 04:25:04;;;;;;;;;;;10.50;99.90;;;;;;5046532;28;20016;-71
2021/04/29 04:27:30;;;;;;;;;;;10.50;99.90;;;;;;5048336;28;19987;-71
2021/04/29 04:29:55;;;;;;;;;;;10.40;99.90;;;;;;5012931;28;19916;-71
2021/04/29 04:32:20;;;;;;;;;;;10.40;99.90;;;;;;5048037;28;20006;-70
2021/04/29 04:34:46;;;;;;;;;;;10.40;99.90;;;;;;5030273;28;20377;-70
2021/04/29 04:37:12;;;;;;;;;;;10.40;99.90;;;;;;5047975;28;19913;-71
2021/04/29 04:39:39;;;;;;;;;;;10.40;99.90;;;;;;5048026;28;20402;-71
2021/04/29 04:42:05;;;;;;;;;;;10.40;99.90;;;;;;5047060;28;20004;-70
2021/04/29 04:44:31;;;;;;;;;;;10.40;99.90;;;;;;5047616;28;19921;-71
2021/04/29 04:46:56;;;;;;;;;;;10.40;99.90;;;;;;5048205;28;20418;-70
2021/04/29 04:49:22;;;;;;;;;;;10.30;99.90;;;;;;5027748;28;19921;-70
2021/04/29 04:51:50;;;;;;;;;;;10.30;99.90;;;;;;5045739;28;19917;-70
2021/04/29 04:54:18;;;;;;;;;;;10.30;99.90;;;;;;5047496;28;19963;-71
2021/04/29 04:56:45;;;;;;;;;;;10.40;99.90;;;;;;5048607;28;19920;-71
2021/04/29 04:59:11;;;;;;;;;;;10.40;99.90;;;;;;5046524;28;20395;-71
2021/04/29 05:01:37;;;;;;;;;;;10.40;99.90;;;;;;5029534;28;19921;-70
2021/04/29 05:04:02;;;;;;;;;;;10.50;99.90;;;;;;5029694;28;19916;-71
2021/04/29 05:06:30;;;;;;;;;;;10.50;99.90;;;;;;5047031;28;19987;-70
2021/04/29 05:08:56;;;;;;;;;;;10.50;99.90;;;;;;5028839;28;19924;-71
2021/04/29 05:11:21;;;;;;;;;;;10.60;99.90;;;;;;5047744;28;19923;-71
2021/04/29 05:13:47;;;;;;;;;;;10.60;99.90;;;;;;5048100;28;19943;-71
2021/04/29 05:16:12;;;;;;;;;;;10.70;99.90;;;;;;5047443;28;19921;-71
2021/04/29 05:18:38;;;;;;;;;;;10.70;99.90;;;;;;5029378;28;19917;-71
2021/04/29 05:21:03;;;;;;;;;;;10.70;99.90;;;;;;5047516;28;19920;-71
2021/04/29 05:23:29;;;;;;;;;;;10.70;99.90;;;;;;5047342;28;20007;-71
2021/04/29 05:25:54;;;;;;;;;;;10.70;99.90;;;;;;5026918;28;19913;-71
2021/04/29 05:28:20;;;;;;;;;;;10.60;99.90;;;;;;5046842;28;19916;-70
2021/04/29 05:30:48;;;;;;;;;;;10.70;99.90;;;;;;5047289;28;20425;-70
2021/04/29 05:33:13;;;;;;;;;;;10.60;99.90;;;;;;5047699;28;19931;-71
2021/04/29 05:35:39;;;;;;;;;;;10.70;99.90;;;;;;5046952;28;19920;-71
2021/04/29 05:38:04;;;;;;;;;;;10.60;99.90;;;;;;5044710;28;19932;-71
2021/04/29 05:40:30;;;;;;;;;;;10.50;99.90;;;;;;5046693;28;19920;-71
2021/04/29 05:42:57;;;;;;;;;;;10.50;99.90;;;;;;5046862;28;19917;-70
2021/04/29 05:45:23;;;;;;;;;;;10.50;99.90;;;;;;5047593;28;19927;-70
2021/04/29 05:47:51;;;;;;;;;;;10.50;99.90;;;;;;5046267;28;19921;-70
2021/04/29 05:50:16;;;;;;;;;;;10.60;99.90;;;;;;5027748;28;19921;-71
2021/04/29 05:52:42;;;;;;;;;;;10.60;99.90;;;;;;5049195;28;19931;-71
2021/04/29 05:55:08;;;;;;;;;;;10.60;99.90;;;;;;5032562;28;20333;-70
2021/04/29 05:57:33;;;;;;;;;;;10.60;99.90;;;;;;5051172;28;19946;-71
2021/04/29 05:59:59;;;;;;;;;;;10.60;99.90;;;;;;5033138;28;20015;-70
2021/04/29 06:02:24;;;;;;;;;;;10.60;99.90;;;;;;5018207;28;20584;-71
2021/04/29 06:04:50;;;;;;;;;;;10.60;99.90;;;;;;5050371;28;19916;-71
2021/04/29 06:07:15;;;;;;;;;;;10.70;99.90;;;;;;5050546;28;19928;-70
2021/04/29 06:09:41;;;;;;;;;;;10.70;99.90;;;;;;5033899;28;19917;-71
2021/04/29 06:12:09;;;;;;;;;;;10.60;99.90;;;;;;5049329;28;20297;-70
2021/04/29 06:14:36;;;;;;;;;;;10.60;99.90;;;;;;5029353;28;19943;-73
2021/04/29 06:17:01;;;;;;;;;;;10.60;99.90;;;;;;5016336;28;19921;-73
2021/04/29 06:19:29;;;;;;;;;;;10.50;99.90;;;;;;5003876;28;19917;-71
2021/04/29 06:21:55;;;;;;;;;;;10.50;99.90;;;;;;5030765;28;19921;-70
2021/04/29 06:24:20;;;;;;;;;;;10.40;99.90;;;;;;5030296;28;19939;-71
2021/04/29 06:26:48;;;;;;;;;;;10.40;99.90;;;;;;5016832;28;20064;-71
2021/04/29 06:29:14;;;;;;;;;;;10.50;99.90;;;;;;5031762;28;19982;-74
2021/04/29 06:31:45;;;;;;;;;;;10.50;99.90;;;;;;5029813;28;19925;-74
2021/04/29 06:34:11;;;;;;;;;;;10.60;99.90;;;;;;5050348;28;19925;-71
2021/04/29 06:36:36;;;;;;;;;;;10.70;99.90;;;;;;5028158;28;19971;-71
2021/04/29 06:39:02;;;;;;;;;;;10.70;99.90;;;;;;5049238;28;19963;-71
2021/04/29 06:41:33;;;;;;;;;;;10.70;99.90;;;;;;5012720;28;19966;-71
2021/04/29 06:43:58;;;;;;;;;;;10.70;99.90;;;;;;5048129;28;20558;-70
2021/04/29 06:46:25;;;;;;;;;;;10.70;99.90;;;;;;5027329;28;19920;-73
2021/04/29 06:48:50;;;;;;;;;;;10.70;99.90;;;;;;5044646;28;19932;-73
2021/04/29 06:51:18;;;;;;;;;;;10.70;99.90;;;;;;5045540;28;19921;-71
2021/04/29 06:53:44;;;;;;;;;;;10.60;99.90;;;;;;5046422;28;19921;-71
2021/04/29 06:56:12;;;;;;;;;;;10.70;99.90;;;;;;5045695;28;19923;-71
2021/04/29 06:58:39;;;;;;;;;;;10.80;99.90;;;;;;5046409;28;21309;-71
2021/04/29 07:01:05;;;;;;;;;;;10.90;99.90;;;;;;5046719;28;19924;-72
2021/04/29 07:03:33;;;;;;;;;;;10.90;99.90;;;;;;5028190;28;20366;-71
2021/04/29 07:05:59;;;;;;;;;;;10.90;99.90;;;;;;5045732;28;19917;-71
2021/04/29 07:08:26;;;;;;;;;;;11.00;99.90;;;;;;5028981;28;19977;-71
2021/04/29 07:10:52;;;;;;;;;;;11.00;99.90;;;;;;5044943;28;19932;-71
2021/04/29 07:13:18;;;;;;;;;;;11.10;99.90;;;;;;5043868;28;19959;-71
2021/04/29 07:15:43;;;;;;;;;;;11.10;99.90;;;;;;5026715;28;20503;-71
2021/04/29 07:18:10;;;;;;;;;;;11.20;99.90;;;;;;5044135;28;19920;-71
2021/04/29 07:20:37;;;;;;;;;;;11.20;99.90;;;;;;5027209;28;20369;-71
2021/04/29 07:23:03;;;;;;;;;;;11.30;99.90;;;;;;5028169;28;19921;-72
2021/04/29 07:25:31;;;;;;;;;;;11.40;99.90;;;;;;5046948;28;20727;-71
2021/04/29 07:28:01;;;;;;;;;;;11.50;99.90;;;;;;5045860;28;19920;-71
2021/04/29 07:30:28;;;;;;;;;;;11.60;99.90;;;;;;5028869;28;20376;-72
2021/04/29 07:32:54;;;;;;;;;;;11.70;99.90;;;;;;5043241;28;19921;-71
2021/04/29 07:35:24;;;;;;;;;;;11.80;99.90;;;;;;5043692;28;20365;-70
2021/04/29 07:37:49;;;;;;;;;;;11.70;99.90;;;;;;5044411;28;20004;-71
2021/04/29 07:40:15;;;;;;;;;;;11.90;99.90;;;;;;5046096;28;20341;-71
2021/04/29 07:42:43;;;;;;;;;;;11.90;99.90;;;;;;5044217;28;19938;-71
2021/04/29 07:45:09;;;;;;;;;;;11.80;99.90;;;;;;5025267;28;19927;-71
2021/04/29 07:47:34;;;;;;;;;;;11.90;99.90;;;;;;5045374;28;19920;-68
2021/04/29 07:50:00;;;;;;;;;;;12.00;99.90;;;;;;5045768;28;19920;-71
2021/04/29 07:52:27;;;;;;;;;;;12.10;99.90;;;;;;5041746;28;19921;-71
2021/04/29 07:54:53;;;;;;;;;;;12.10;99.90;;;;;;5027163;28;19936;-70
2021/04/29 07:57:23;;;;;;;;;;;12.30;99.90;;;;;;5024450;28;19920;-71
2021/04/29 07:59:49;;;;;;;;;;;12.30;99.90;;;;;;5044215;28;19920;-72
2021/04/29 08:02:17;;;;;;;;;;;12.40;99.90;;;;;;5043882;28;20278;-70
2021/04/29 08:04:43;;;;;;;;;;;12.50;99.90;;;;;;5043696;28;19952;-69
2021/04/29 08:07:08;;;;;;;;;;;12.50;99.90;;;;;;5042995;28;20746;-68
2021/04/29 08:09:34;;;;;;;;;;;12.30;99.90;;;;;;5043069;28;19924;-69
2021/04/29 08:12:00;;;;;;;;;;;12.50;99.90;;;;;;5041001;28;19921;-68
2021/04/29 08:14:26;;;;;;;;;;;12.60;99.90;;;;;;5026061;28;19920;-68
2021/04/29 08:16:51;;;;;;;;;;;12.60;99.90;;;;;;5041470;28;19920;-71
2021/04/29 08:19:17;;;;;;;;;;;12.80;99.90;;;;;;5026375;28;19918;-71
2021/04/29 08:21:45;;;;;;;;;;;13.00;99.90;;;;;;5027545;28;19985;-70
2021/04/29 08:24:10;;;;;;;;;;;13.20;99.90;;;;;;5024916;28;19970;-68
2021/04/29 08:26:37;;;;;;;;;;;13.10;99.90;;;;;;5025778;28;19924;-71
2021/04/29 08:29:03;;;;;;;;;;;13.20;99.90;;;;;;5042807;28;20377;-70
2021/04/29 08:31:31;;;;;;;;;;;13.20;99.90;;;;;;5027528;28;20334;-71
2021/04/29 08:33:57;;;;;;;;;;;13.20;99.90;;;;;;5043357;28;20034;-71
2021/04/29 08:36:22;;;;;;;;;;;13.30;99.90;;;;;;5042899;28;19916;-71
2021/04/29 08:38:48;;;;;;;;;;;13.00;99.90;;;;;;5043252;28;20401;-71
2021/04/29 08:41:13;;;;;;;;;;;13.10;99.90;;;;;;5025805;28;19921;-71
2021/04/29 08:43:39;;;;;;;;;;;12.80;99.90;;;;;;5043752;28;19978;-71
2021/04/29 08:46:05;;;;;;;;;;;12.80;99.90;;;;;;5009766;28;19920;-71
2021/04/29 08:48:30;;;;;;;;;;;12.70;99.90;;;;;;5042883;28;21610;-74
2021/04/29 08:50:58;;;;;;;;;;;12.80;99.90;;;;;;5026211;28;19923;-74
2021/04/29 08:53:24;;;;;;;;;;;12.90;99.90;;;;;;5026355;28;19948;-72
2021/04/29 08:55:50;;;;;;;;;;;12.70;99.90;;;;;;5043057;28;19931;-71
2021/04/29 08:58:19;;;;;;;;;;;12.80;99.90;;;;;;5044099;28;19920;-71
2021/04/29 09:00:48;;;;;;;;;;;12.60;99.90;;;;;;5043405;28;19924;-72
2021/04/29 09:03:14;;;;;;;;;;;12.60;99.90;;;;;;5042452;28;19971;-71
2021/04/29 09:05:40;;;;;;;;;;;12.70;99.90;;;;;;5025448;28;20331;-71
2021/04/29 09:08:09;;;;;;;;;;;12.70;99.90;;;;;;5043071;28;19931;-71
2021/04/29 09:10:37;;;;;;;;;;;12.40;99.90;;;;;;5044297;28;19921;-71
2021/04/29 09:13:34;;;;;;;;;;;12.70;99.90;;;;;;5026399;28;20413;-72
2021/04/29 09:16:07;;;;;;;;;;;12.60;99.90;;;;;;5037456;28;19931;-71
2021/04/29 09:18:32;;;;;;;;;;;12.60;99.90;;;;;;5041620;28;19920;-68
2021/04/29 09:21:10;;;;;;;;;;;12.60;97.50;;;;;;5025383;28;19960;-71
2021/04/29 09:23:40;;;;;;;;;;;12.70;99.90;;;;;;5042772;28;19917;-71
2021/04/29 09:26:08;;;;;;;;;;;12.90;99.90;;;;;;5042734;28;19920;-71
2021/04/29 09:28:43;;;;;;;;;;;12.90;99.90;;;;;;5042604;28;19971;-71
2021/04/29 09:31:22;;;;;;;;;;;13.00;98.20;;;;;;5044565;28;20389;-71
2021/04/29 09:33:51;;;;;;;;;;;13.30;98.90;;;;;;5027177;28;19995;-71
2021/04/29 09:36:51;;;;;;;;;;;13.40;95.70;;;;;;5044366;28;20571;-71
2021/04/29 09:39:19;;;;;;;;;;;13.60;99.90;;;;;;5014543;28;20512;-72
2021/04/29 09:41:50;;;;;;;;;;;13.90;99.90;;;;;;5026831;28;19920;-71
2021/04/29 09:44:18;;;;;;;;;;;14.10;95.40;;;;;;5019839;28;20019;-71
2021/04/29 09:46:48;;;;;;;;;;;14.40;96.80;;;;;;5025235;28;19929;-72
2021/04/29 09:49:19;;;;;;;;;;;14.20;86.30;;;;;;5026228;28;19920;-71
2021/04/29 09:51:45;;;;;;;;;;;14.10;91.10;;;;;;5044937;28;19931;-71
2021/04/29 09:54:10;;;;;;;;;;;14.10;88.40;;;;;;5044248;28;19928;-71
2021/04/29 09:56:37;;;;;;;;;;;14.30;87.70;;;;;;5013186;28;19928;-71
2021/04/29 09:59:03;;;;;;;;;;;14.60;92.10;;;;;;5024137;28;20550;-71
2021/04/29 10:01:28;;;;;;;;;;;14.70;80.40;;;;;;5026786;28;19921;-72
2021/04/29 10:03:54;;;;;;;;;;;14.90;84.30;;;;;;5027072;28;20577;-71
2021/04/29 10:06:20;;;;;;;;;;;15.10;90.90;;;;;;5044389;28;20015;-71
2021/04/29 10:08:46;;;;;;;;;;;15.20;80.60;;;;;;5026539;28;19936;-71
2021/04/29 10:11:14;;;;;;;;;;;15.10;78.10;;;;;;5045316;28;20801;-71
2021/04/29 10:13:44;;;;;;;;;;;15.00;72.70;;;;;;5045557;28;19974;-70
2021/04/29 10:16:12;;;;;;;;;;;14.80;71.50;;;;;;5045172;28;19969;-71
2021/04/29 10:18:38;;;;;;;;;;;14.80;72.70;;;;;;5044695;28;19919;-72
2021/04/29 10:21:03;;;;;;;;;;;14.70;76.30;;;;;;5026669;28;19920;-71
2021/04/29 10:23:29;;;;;;;;;;;14.40;76.30;;;;;;5026421;28;19928;-71
2021/04/29 10:25:55;;;;;;;;;;;13.80;79.40;;;;;;5012666;28;19920;-70
2021/04/29 10:28:33;;;;;;;;;;;13.30;80.20;;;;;;5044100;28;21828;-71
2021/04/29 10:30:59;;;;;;;;;;;12.70;79.00;;;;;;5044125;28;20015;-70
2021/04/29 10:33:24;;;;;;;;;;;12.10;91.10;;;;;;5024328;28;19920;-75
2021/04/29 10:35:54;;;;;;;;;;;11.10;93.20;;;;;;5026103;28;20039;-73
2021/04/29 10:38:27;;;;;;;;;;;10.80;99.90;;;;;;4695731;28;10000560;-69
2021/04/29 10:40:52;;;;;;;;;;;10.20;99.90;;;;;;5045874;28;20038;-69
2021/04/29 10:43:26;;;;;;;;;;;9.60;99.90;;;;;;5048183;28;19925;-69
2021/04/29 10:45:52;;;;;;;;;;;9.40;99.90;;;;;;5028784;28;19920;-69
2021/04/29 10:48:20;;;;;;;;;;;9.50;99.90;;;;;;5029622;28;19921;-70
2021/04/29 10:50:46;;;;;;;;;;;9.40;99.90;;;;;;5046903;28;19931;-71
2021/04/29 10:53:25;;;;;;;;;;;9.50;99.90;;;;;;5029097;28;19982;-70
2021/04/29 10:55:56;;;;;;;;;;;9.50;99.90;;;;;;5045980;28;20680;-71
2021/04/29 10:58:22;;;;;;;;;;;9.50;99.90;;;;;;5029741;28;19960;-71
2021/04/29 11:00:54;;;;;;;;;;;9.30;99.90;;;;;;5046779;28;19917;-70
2021/04/29 11:03:29;;;;;;;;;;;9.40;99.90;;;;;;5049572;28;19917;-71
2021/04/29 11:06:13;;;;;;;;;;;9.50;99.90;;;;;;5047045;28;20054;-71
2021/04/29 11:08:40;;;;;;;;;;;9.40;99.90;;;;;;5005825;28;19951;-71
2021/04/29 11:11:05;;;;;;;;;;;9.60;99.90;;;;;;5003774;28;20322;-71
2021/04/29 11:13:31;;;;;;;;;;;9.70;99.90;;;;;;5007649;28;20012;-71
2021/04/29 11:15:57;;;;;;;;;;;9.90;99.90;;;;;;5006097;28;19932;-72
2021/04/29 11:18:23;;;;;;;;;;;10.10;99.90;;;;;;5004244;28;20319;-74
2021/04/29 11:20:49;;;;;;;;;;;10.50;99.90;;;;;;5004911;28;19979;-74
2021/04/29 11:23:26;;;;;;;;;;;10.80;99.90;;;;;;5005107;28;19918;-71
2021/04/29 11:25:53;;;;;;;;;;;11.10;99.90;;;;;;4657577;28;9999732;-71
2021/04/29 11:28:26;;;;;;;;;;;11.60;99.90;;;;;;5019742;28;19975;-72
2021/04/29 11:30:53;;;;;;;;;;;11.80;99.90;;;;;;5006622;28;19932;-71
2021/04/29 11:33:18;;;;;;;;;;;12.10;99.90;;;;;;5020956;28;19917;-71
2021/04/29 11:35:44;;;;;;;;;;;12.50;99.90;;;;;;5005459;28;19921;-71
2021/04/29 11:38:09;;;;;;;;;;;12.90;99.90;;;;;;5003817;28;20016;-71
2021/04/29 11:40:35;;;;;;;;;;;13.00;99.90;;;;;;5005509;28;19932;-71
2021/04/29 11:43:01;;;;;;;;;;;13.30;99.90;;;;;;5005127;28;20531;-71
2021/04/29 11:45:28;;;;;;;;;;;13.70;99.90;;;;;;5004150;28;19914;-71
2021/04/29 11:48:06;;;;;;;;;;;14.00;99.90;;;;;;5006619;28;19925;-71
2021/04/29 11:50:33;;;;;;;;;;;14.30;99.90;;;;;;5005694;28;19922;-71
2021/04/29 11:53:16;;;;;;;;;;;14.30;99.90;;;;;;5007379;28;19972;-71
2021/04/29 11:55:44;;;;;;;;;;;14.50;99.90;;;;;;5006460;28;19921;-71
2021/04/29 11:58:12;;;;;;;;;;;14.90;99.90;;;;;;5007852;28;19921;-72
2021/04/29 12:00:42;;;;;;;;;;;15.10;99.90;;;;;;5005107;28;19928;-72
2021/04/29 12:03:08;;;;;;;;;;;14.80;95.80;;;;;;5008173;28;19925;-72
2021/04/29 12:05:34;;;;;;;;;;;15.40;99.90;;;;;;5022403;28;20011;-71
2021/04/29 12:08:00;;;;;;;;;;;15.30;89.30;;;;;;5004985;28;19925;-72
2021/04/29 12:10:25;;;;;;;;;;;15.30;91.20;;;;;;5008605;28;19928;-72
2021/04/29 12:12:53;;;;;;;;;;;15.50;96.90;;;;;;5022986;28;20346;-72
2021/04/29 12:15:19;;;;;;;;;;;15.80;81.40;;;;;;5005170;28;20065;-69
2021/04/29 12:17:44;;;;;;;;;;;15.80;85.30;;;;;;5006249;28;19979;-71
2021/04/29 12:20:10;;;;;;;;;;;15.90;90.20;;;;;;5006861;28;19917;-70
2021/04/29 12:22:36;;;;;;;;;;;16.00;80.00;;;;;;5006562;28;19917;-72
2021/04/29 12:25:01;;;;;;;;;;;16.00;71.50;;;;;;5005018;28;19976;-72
2021/04/29 12:27:29;;;;;;;;;;;15.40;72.30;;;;;;5006448;28;20015;-72
2021/04/29 12:30:05;;;;;;;;;;;15.40;74.90;;;;;;5022934;28;19921;-72
2021/04/29 12:32:34;;;;;;;;;;;15.40;79.30;;;;;;5007059;28;19917;-72
2021/04/29 12:34:59;;;;;;;;;;;15.80;86.00;;;;;;5006317;28;20035;-71
2021/04/29 12:37:25;;;;;;;;;;;15.90;77.00;;;;;;5007832;28;19913;-71
2021/04/29 12:39:50;;;;;;;;;;;16.40;81.10;;;;;;5004852;28;20315;-72
2021/04/29 12:42:18;;;;;;;;;;;16.70;78.10;;;;;;5005277;28;19921;-73
2021/04/29 12:44:45;;;;;;;;;;;16.50;70.20;;;;;;5005611;28;19921;-73
2021/04/29 12:47:31;;;;;;;;;;;16.60;72.40;;;;;;5004220;28;20011;-73
2021/04/29 12:50:04;;;;;;;;;;;16.70;68.80;;;;;;5006047;28;19932;-73
2021/04/29 12:52:32;;;;;;;;;;;16.80;67.00;;;;;;5004620;28;19921;-72
2021/04/29 12:54:58;;;;;;;;;;;16.80;65.50;;;;;;5000817;28;19939;-73
2021/04/29 12:57:26;;;;;;;;;;;16.70;65.80;;;;;;5022322;28;20816;-72
2021/04/29 12:59:54;;;;;;;;;;;16.90;67.00;;;;;;5006528;28;19921;-72
2021/04/29 13:02:23;;;;;;;;;;;17.30;67.00;;;;;;5005589;28;19917;-70
2021/04/29 13:05:19;;;;;;;;;;;17.90;62.40;;;;;;5005803;28;20620;-71
2021/04/29 13:07:47;;;;;;;;;;;17.70;54.50;;;;;;4998397;28;20584;-68
2021/04/29 13:10:20;;;;;;;;;;;17.20;49.90;;;;;;5005786;28;19917;-69
2021/04/29 13:12:53;;;;;;;;;;;17.00;49.20;;;;;;5005519;28;19917;-72
2021/04/29 13:15:21;;;;;;;;;;;17.30;53.80;;;;;;5005003;28;20498;-72
2021/04/29 13:17:46;;;;;;;;;;;17.20;51.10;;;;;;5005719;28;20020;-71
2021/04/29 13:20:12;;;;;;;;;;;17.40;52.30;;;;;;5004944;28;20689;-71
2021/04/29 13:22:38;;;;;;;;;;;17.50;49.80;;;;;;5002409;28;19983;-72
2021/04/29 13:25:07;;;;;;;;;;;17.40;51.00;;;;;;5005180;28;19921;-70
2021/04/29 13:27:33;;;;;;;;;;;16.90;50.00;;;;;;5004097;28;19921;-72
2021/04/29 13:29:58;;;;;;;;;;;17.10;55.00;;;;;;5003585;28;20378;-71
2021/04/29 13:32:24;;;;;;;;;;;17.10;49.00;;;;;;5004376;28;19925;-71
2021/04/29 13:34:52;;;;;;;;;;;17.20;50.40;;;;;;5003457;28;19932;-72
2021/04/29 13:37:17;;;;;;;;;;;17.20;51.50;;;;;;5005000;28;19963;-73
2021/04/29 13:39:43;;;;;;;;;;;17.20;50.10;;;;;;5005995;28;19999;-72
2021/04/29 13:42:08;;;;;;;;;;;17.00;52.20;;;;;;5005792;28;19960;-73
2021/04/29 13:44:35;;;;;;;;;;;16.70;52.60;;;;;;5005075;28;19921;-71
2021/04/29 13:47:03;;;;;;;;;;;16.60;53.50;;;;;;5004804;28;19928;-69
2021/04/29 13:49:34;;;;;;;;;;;16.70;53.10;;;;;;5020332;28;20024;-71
2021/04/29 13:52:00;;;;;;;;;;;16.60;49.10;;;;;;5005599;28;19923;-71
2021/04/29 13:54:25;;;;;;;;;;;16.50;49.80;;;;;;5003015;28;19921;-72
2021/04/29 13:56:51;;;;;;;;;;;16.50;53.50;;;;;;5004282;28;20606;-70
2021/04/29 13:59:16;;;;;;;;;;;16.20;50.50;;;;;;5022010;28;19936;-71
2021/04/29 14:01:43;;;;;;;;;;;16.30;53.00;;;;;;5003233;28;19921;-71
2021/04/29 14:04:08;;;;;;;;;;;16.00;49.90;;;;;;5004884;28;19917;-71
2021/04/29 14:06:33;;;;;;;;;;;15.90;51.40;;;;;;5005989;28;19927;-72
2021/04/29 14:09:01;;;;;;;;;;;16.00;52.00;;;;;;5043367;28;20477;-71
2021/04/29 14:11:29;;;;;;;;;;;15.80;51.20;;;;;;5044449;28;20290;-71
2021/04/29 14:13:54;;;;;;;;;;;15.60;50.70;;;;;;5028351;28;19917;-71
2021/04/29 14:16:28;;;;;;;;;;;15.50;51.00;;;;;;5047410;28;19916;-72